createdAt,value
2018-11-13T00:00:30.850Z,996.10
2018-11-13T00:01:30.767Z,996.15
2018-11-13T00:02:30.707Z,996.13
2018-11-13T00:03:30.639Z,996.14
2018-11-13T00:04:30.571Z,996.09
2018-11-13T00:05:30.503Z,996.10
2018-11-13T00:06:30.429Z,996.12
2018-11-13T00:07:30.359Z,996.11
2018-11-13T00:08:30.297Z,996.13
2018-11-13T00:09:30.234Z,996.10
2018-11-13T00:10:30.185Z,996.14
2018-11-13T00:11:30.147Z,996.13
2018-11-13T00:12:30.042Z,996.15
2018-11-13T00:13:29.974Z,996.15
2018-11-13T00:14:29.892Z,996.20
2018-11-13T00:15:29.824Z,996.18
2018-11-13T00:16:29.783Z,996.18
2018-11-13T00:17:29.691Z,996.12
2018-11-13T00:18:29.615Z,996.14
2018-11-13T00:19:29.565Z,996.18
2018-11-13T00:20:29.479Z,996.17
2018-11-13T00:21:29.430Z,996.15
2018-11-13T00:22:29.357Z,996.16
2018-11-13T00:23:29.281Z,996.12
2018-11-13T00:24:29.209Z,996.14
2018-11-13T00:25:29.140Z,996.17
2018-11-13T00:26:29.085Z,996.19
2018-11-13T00:27:29.098Z,996.21
2018-11-13T00:28:28.946Z,996.21
2018-11-13T00:29:28.933Z,996.20
2018-11-13T00:30:28.820Z,996.21
2018-11-13T00:31:28.731Z,996.22
2018-11-13T00:32:28.664Z,996.22
2018-11-13T00:33:28.619Z,996.23
2018-11-13T00:34:28.541Z,996.23
2018-11-13T00:35:28.479Z,996.19
2018-11-13T00:36:28.405Z,996.22
2018-11-13T00:37:28.343Z,996.23
2018-11-13T00:38:28.278Z,996.20
2018-11-13T00:39:28.210Z,996.22
2018-11-13T00:40:28.135Z,996.23
2018-11-13T00:41:28.077Z,996.25
2018-11-13T00:42:28.030Z,996.25
2018-11-13T00:43:27.942Z,996.27
2018-11-13T00:44:27.851Z,996.30
2018-11-13T00:45:27.837Z,996.28
2018-11-13T00:46:27.733Z,996.32
2018-11-13T00:47:27.665Z,996.35
2018-11-13T00:48:28.157Z,996.31
2018-11-13T00:49:27.533Z,996.34
2018-11-13T00:50:27.488Z,996.33
2018-11-13T00:51:27.401Z,996.35
2018-11-13T00:52:27.334Z,996.36
2018-11-13T00:53:27.246Z,996.36
2018-11-13T00:54:27.194Z,996.38
2018-11-13T00:55:27.120Z,996.33
2018-11-13T00:56:27.040Z,996.40
2018-11-13T00:57:26.980Z,996.39
2018-11-13T00:58:26.915Z,996.41
2018-11-13T00:59:26.866Z,996.40
2018-11-13T01:00:26.781Z,996.43
2018-11-13T01:01:26.713Z,996.40
2018-11-13T01:02:26.663Z,996.44
2018-11-13T01:03:26.572Z,996.45
2018-11-13T01:04:26.517Z,996.41
2018-11-13T01:05:26.548Z,996.46
2018-11-13T01:06:26.370Z,996.45
2018-11-13T01:07:26.298Z,996.52
2018-11-13T01:08:26.226Z,996.51
2018-11-13T01:09:26.158Z,996.50
2018-11-13T01:10:26.107Z,996.52
2018-11-13T01:11:26.039Z,996.53
2018-11-13T01:12:25.957Z,996.57
2018-11-13T01:13:25.922Z,996.56
2018-11-13T01:14:25.838Z,996.56
2018-11-13T01:15:25.761Z,996.55
2018-11-13T01:16:25.696Z,996.55
2018-11-13T01:17:25.640Z,996.54
2018-11-13T01:18:25.571Z,996.58
2018-11-13T01:19:25.518Z,996.60
2018-11-13T01:20:25.413Z,996.59
2018-11-13T01:21:25.348Z,996.58
2018-11-13T01:22:25.335Z,996.65
2018-11-13T01:23:25.455Z,996.69
2018-11-13T01:24:25.153Z,996.68
2018-11-13T01:25:25.089Z,996.71
2018-11-13T01:26:25.011Z,996.72
2018-11-13T01:27:24.959Z,996.73
2018-11-13T01:28:24.884Z,996.74
2018-11-13T01:29:24.818Z,996.73
2018-11-13T01:30:24.778Z,996.74
2018-11-13T01:31:24.681Z,996.75
2018-11-13T01:32:24.598Z,996.76
2018-11-13T01:33:24.549Z,996.74
2018-11-13T01:34:24.471Z,996.82
2018-11-13T01:35:24.401Z,996.83
2018-11-13T01:36:24.330Z,996.83
2018-11-13T01:37:24.265Z,996.86
2018-11-13T01:38:24.204Z,996.86
2018-11-13T01:39:24.131Z,996.86
2018-11-13T01:40:24.071Z,996.86
2018-11-13T01:41:23.995Z,996.87
2018-11-13T01:42:23.932Z,996.90
2018-11-13T01:43:23.851Z,996.87
2018-11-13T01:44:23.793Z,996.89
2018-11-13T01:45:23.729Z,996.87
2018-11-13T01:46:23.661Z,996.93
2018-11-13T01:47:23.590Z,996.93
2018-11-13T01:48:23.510Z,996.93
2018-11-13T01:49:23.461Z,996.97
2018-11-13T01:50:23.384Z,996.96
2018-11-13T01:51:23.318Z,996.96
2018-11-13T01:52:23.247Z,996.92
2018-11-13T01:53:23.178Z,996.93
2018-11-13T01:54:23.148Z,996.96
2018-11-13T01:55:23.034Z,996.99
2018-11-13T01:56:22.969Z,996.98
2018-11-13T01:57:22.900Z,996.98
2018-11-13T01:58:22.835Z,996.97
2018-11-13T01:59:22.767Z,996.96
2018-11-13T02:00:22.717Z,996.99
2018-11-13T02:01:22.621Z,996.96
2018-11-13T02:02:22.565Z,996.97
2018-11-13T02:03:22.493Z,996.94
2018-11-13T02:04:22.428Z,996.97
2018-11-13T02:05:22.357Z,996.99
2018-11-13T02:06:22.286Z,997.00
2018-11-13T02:07:22.216Z,997.00
2018-11-13T02:08:22.163Z,997.02
2018-11-13T02:09:22.115Z,997.04
2018-11-13T02:10:22.029Z,997.02
2018-11-13T02:11:21.942Z,997.03
2018-11-13T02:12:21.889Z,997.03
2018-11-13T02:13:21.809Z,997.02
2018-11-13T02:14:21.746Z,997.05
2018-11-13T02:15:21.686Z,996.99
2018-11-13T02:16:21.599Z,996.99
2018-11-13T02:17:21.538Z,996.98
2018-11-13T02:18:21.474Z,997.01
2018-11-13T02:19:21.408Z,997.00
2018-11-13T02:20:21.335Z,997.01
2018-11-13T02:21:21.267Z,997.02
2018-11-13T02:22:21.190Z,996.98
2018-11-13T02:23:21.122Z,997.02
2018-11-13T02:24:21.054Z,997.00
2018-11-13T02:25:20.985Z,997.02
2018-11-13T02:26:20.929Z,997.00
2018-11-13T02:27:20.859Z,997.01
2018-11-13T02:28:20.798Z,996.99
2018-11-13T02:29:20.723Z,997.00
2018-11-13T02:30:20.661Z,997.04
2018-11-13T02:31:20.577Z,997.04
2018-11-13T02:32:20.517Z,997.04
2018-11-13T02:33:20.450Z,997.03
2018-11-13T02:34:20.374Z,996.99
2018-11-13T02:35:20.333Z,996.99
2018-11-13T02:36:20.236Z,996.96
2018-11-13T02:37:20.170Z,997.00
2018-11-13T02:38:20.111Z,996.94
2018-11-13T02:39:20.048Z,996.95
2018-11-13T02:40:19.977Z,996.95
2018-11-13T02:41:19.902Z,996.94
2018-11-13T02:42:19.827Z,996.95
2018-11-13T02:43:19.761Z,996.99
2018-11-13T02:44:19.687Z,996.98
2018-11-13T02:45:19.659Z,996.99
2018-11-13T02:46:19.581Z,997.04
2018-11-13T02:47:19.493Z,997.03
2018-11-13T02:48:19.414Z,997.01
2018-11-13T02:49:19.357Z,997.01
2018-11-13T02:50:19.291Z,997.00
2018-11-13T02:51:19.221Z,997.02
2018-11-13T02:52:19.152Z,997.06
2018-11-13T02:53:19.085Z,997.02
2018-11-13T02:54:19.014Z,997.04
2018-11-13T02:55:19.002Z,997.04
2018-11-13T02:56:18.877Z,997.04
2018-11-13T02:57:18.823Z,997.07
2018-11-13T02:58:18.746Z,997.04
2018-11-13T02:59:18.677Z,997.05
2018-11-13T03:00:18.611Z,997.06
2018-11-13T03:01:18.543Z,997.06
2018-11-13T03:02:18.459Z,997.04
2018-11-13T03:03:18.412Z,997.05
2018-11-13T03:04:18.335Z,997.02
2018-11-13T03:05:18.269Z,997.08
2018-11-13T03:06:18.228Z,997.07
2018-11-13T03:07:18.141Z,997.10
2018-11-13T03:08:18.059Z,997.16
2018-11-13T03:09:18.003Z,997.14
2018-11-13T03:10:17.930Z,997.13
2018-11-13T03:11:17.859Z,997.17
2018-11-13T03:12:17.780Z,997.14
2018-11-13T03:13:17.712Z,997.14
2018-11-13T03:14:17.657Z,997.12
2018-11-13T03:15:17.591Z,997.12
2018-11-13T03:16:17.521Z,997.14
2018-11-13T03:17:17.449Z,997.14
2018-11-13T03:18:17.371Z,997.17
2018-11-13T03:19:17.306Z,997.10
2018-11-13T03:20:17.244Z,997.14
2018-11-13T03:21:17.177Z,997.11
2018-11-13T03:22:17.128Z,997.09
2018-11-13T03:23:17.030Z,997.09
2018-11-13T03:24:16.962Z,997.09
2018-11-13T03:25:16.893Z,997.04
2018-11-13T03:26:16.834Z,997.08
2018-11-13T03:27:16.778Z,997.09
2018-11-13T03:28:16.702Z,997.09
2018-11-13T03:29:16.637Z,997.10
2018-11-13T03:30:16.554Z,997.07
2018-11-13T03:31:16.622Z,997.05
2018-11-13T03:32:16.434Z,997.08
2018-11-13T03:33:16.352Z,997.07
2018-11-13T03:34:16.290Z,997.11
2018-11-13T03:35:16.224Z,997.14
2018-11-13T03:36:16.151Z,997.12
2018-11-13T03:37:16.076Z,997.14
2018-11-13T03:38:16.017Z,997.14
2018-11-13T03:39:15.950Z,997.16
2018-11-13T03:40:15.881Z,997.18
2018-11-13T03:41:15.846Z,997.14
2018-11-13T03:42:15.733Z,997.16
2018-11-13T03:43:15.685Z,997.20
2018-11-13T03:44:15.603Z,997.16
2018-11-13T03:45:15.533Z,997.18
2018-11-13T03:46:15.476Z,997.13
2018-11-13T03:47:15.411Z,997.15
2018-11-13T03:48:15.340Z,997.16
2018-11-13T03:49:15.268Z,997.15
2018-11-13T03:50:15.205Z,997.12
2018-11-13T03:51:15.740Z,997.12
2018-11-13T03:52:15.066Z,997.15
2018-11-13T03:53:14.999Z,997.15
2018-11-13T03:54:14.916Z,997.17
2018-11-13T03:55:14.856Z,997.10
2018-11-13T03:56:14.780Z,997.16
2018-11-13T03:57:14.715Z,997.20
2018-11-13T03:58:14.660Z,997.20
2018-11-13T03:59:14.583Z,997.21
2018-11-13T04:00:14.523Z,997.22
2018-11-13T04:01:14.452Z,997.24
2018-11-13T04:02:14.389Z,997.25
2018-11-13T04:03:14.326Z,997.27
2018-11-13T04:04:14.242Z,997.23
2018-11-13T04:05:14.164Z,997.22
2018-11-13T04:06:14.107Z,997.24
2018-11-13T04:07:14.038Z,997.24
2018-11-13T04:08:13.962Z,997.23
2018-11-13T04:09:13.931Z,997.29
2018-11-13T04:10:13.838Z,997.29
2018-11-13T04:11:13.766Z,997.27
2018-11-13T04:12:13.712Z,997.30
2018-11-13T04:13:13.629Z,997.26
2018-11-13T04:14:13.555Z,997.30
2018-11-13T04:15:13.495Z,997.28
2018-11-13T04:16:13.428Z,997.30
2018-11-13T04:17:13.360Z,997.34
2018-11-13T04:18:13.278Z,997.32
2018-11-13T04:19:13.229Z,997.35
2018-11-13T04:20:13.143Z,997.35
2018-11-13T04:21:13.092Z,997.37
2018-11-13T04:22:13.016Z,997.39
2018-11-13T04:23:12.952Z,997.36
2018-11-13T04:24:12.953Z,997.38
2018-11-13T04:25:12.814Z,997.39
2018-11-13T04:26:12.744Z,997.34
2018-11-13T04:27:12.682Z,997.36
2018-11-13T04:28:12.634Z,997.36
2018-11-13T04:29:12.548Z,997.38
2018-11-13T04:30:12.469Z,997.36
2018-11-13T04:31:12.401Z,997.41
2018-11-13T04:32:12.323Z,997.39
2018-11-13T04:33:12.268Z,997.43
2018-11-13T04:34:12.200Z,997.41
2018-11-13T04:35:12.125Z,997.48
2018-11-13T04:36:12.077Z,997.49
2018-11-13T04:37:11.988Z,997.48
2018-11-13T04:38:11.915Z,997.54
2018-11-13T04:39:11.865Z,997.54
2018-11-13T04:40:11.791Z,997.56
2018-11-13T04:41:11.716Z,997.56
2018-11-13T04:42:11.641Z,997.55
2018-11-13T04:43:11.574Z,997.59
2018-11-13T04:44:11.551Z,997.59
2018-11-13T04:45:11.445Z,997.55
2018-11-13T04:46:11.378Z,997.58
2018-11-13T04:47:11.323Z,997.60
2018-11-13T04:48:11.246Z,997.61
2018-11-13T04:49:11.165Z,997.61
2018-11-13T04:50:11.102Z,997.64
2018-11-13T04:51:11.039Z,997.63
2018-11-13T04:52:10.975Z,997.65
2018-11-13T04:53:10.900Z,997.69
2018-11-13T04:54:10.831Z,997.76
2018-11-13T04:55:10.767Z,997.77
2018-11-13T04:56:10.698Z,997.76
2018-11-13T04:57:10.622Z,997.75
2018-11-13T04:58:10.559Z,997.76
2018-11-13T04:59:10.506Z,997.84
2018-11-13T05:00:10.418Z,997.83
2018-11-13T05:01:10.342Z,997.80
2018-11-13T05:02:10.273Z,997.88
2018-11-13T05:03:10.227Z,997.84
2018-11-13T05:04:10.141Z,997.86
2018-11-13T05:05:10.083Z,997.83
2018-11-13T05:06:10.014Z,997.82
2018-11-13T05:07:09.944Z,997.81
2018-11-13T05:08:09.872Z,997.82
2018-11-13T05:09:09.822Z,997.84
2018-11-13T05:10:09.802Z,997.86
2018-11-13T05:11:09.666Z,997.88
2018-11-13T05:12:09.603Z,997.87
2018-11-13T05:13:09.527Z,997.91
2018-11-13T05:14:09.472Z,997.90
2018-11-13T05:15:09.383Z,997.92
2018-11-13T05:16:09.321Z,997.93
2018-11-13T05:17:09.256Z,997.93
2018-11-13T05:18:09.192Z,997.97
2018-11-13T05:19:09.115Z,997.95
2018-11-13T05:20:09.046Z,997.98
2018-11-13T05:21:09.007Z,997.97
2018-11-13T05:22:08.918Z,998.00
2018-11-13T05:23:08.890Z,998.04
2018-11-13T05:24:08.783Z,998.04
2018-11-13T05:25:08.719Z,998.01
2018-11-13T05:26:08.634Z,998.08
2018-11-13T05:27:08.574Z,998.09
2018-11-13T05:28:08.506Z,998.04
2018-11-13T05:29:08.431Z,998.04
2018-11-13T05:30:08.363Z,998.09
2018-11-13T05:31:08.310Z,998.09
2018-11-13T05:32:08.225Z,998.10
2018-11-13T05:33:08.167Z,998.08
2018-11-13T05:34:08.100Z,998.11
2018-11-13T05:35:08.036Z,998.11
2018-11-13T05:36:07.967Z,998.12
2018-11-13T05:37:07.884Z,998.13
2018-11-13T05:38:07.817Z,998.13
2018-11-13T05:39:07.752Z,998.14
2018-11-13T05:40:07.700Z,998.16
2018-11-13T05:41:07.624Z,998.13
2018-11-13T05:42:07.561Z,998.14
2018-11-13T05:43:07.490Z,998.18
2018-11-13T05:44:07.409Z,998.16
2018-11-13T05:45:07.353Z,998.20
2018-11-13T05:46:07.286Z,998.21
2018-11-13T05:47:07.289Z,998.26
2018-11-13T05:48:07.144Z,998.28
2018-11-13T05:49:07.082Z,998.33
2018-11-13T05:50:07.006Z,998.32
2018-11-13T05:51:06.938Z,998.38
2018-11-13T05:52:06.888Z,998.38
2018-11-13T05:53:06.812Z,998.39
2018-11-13T05:54:06.727Z,998.40
2018-11-13T05:55:06.664Z,998.41
2018-11-13T05:56:06.606Z,998.42
2018-11-13T05:57:06.536Z,998.44
2018-11-13T05:58:06.468Z,998.43
2018-11-13T05:59:06.393Z,998.47
2018-11-13T06:00:06.327Z,998.50
2018-11-13T06:01:06.274Z,998.50
2018-11-13T06:02:06.226Z,998.47
2018-11-13T06:03:06.129Z,998.54
2018-11-13T06:04:06.060Z,998.54
2018-11-13T06:05:05.986Z,998.51
2018-11-13T06:06:05.928Z,998.56
2018-11-13T06:07:05.843Z,998.58
2018-11-13T06:08:05.779Z,998.60
2018-11-13T06:09:05.716Z,998.65
2018-11-13T06:10:05.654Z,998.68
2018-11-13T06:11:05.582Z,998.71
2018-11-13T06:12:05.520Z,998.66
2018-11-13T06:13:05.437Z,998.68
2018-11-13T06:14:05.438Z,998.70
2018-11-13T06:15:05.309Z,998.72
2018-11-13T06:16:05.245Z,998.70
2018-11-13T06:17:05.166Z,998.69
2018-11-13T06:18:05.162Z,998.72
2018-11-13T06:19:05.032Z,998.70
2018-11-13T06:20:04.961Z,998.74
2018-11-13T06:21:04.905Z,998.74
2018-11-13T06:22:04.838Z,998.74
2018-11-13T06:23:04.788Z,998.78
2018-11-13T06:24:04.693Z,998.83
2018-11-13T06:25:04.630Z,998.88
2018-11-13T06:26:04.565Z,998.85
2018-11-13T06:27:04.495Z,998.86
2018-11-13T06:28:04.428Z,998.85
2018-11-13T06:29:04.365Z,998.91
2018-11-13T06:30:04.282Z,998.90
2018-11-13T06:31:04.226Z,998.91
2018-11-13T06:32:04.157Z,998.88
2018-11-13T06:33:04.078Z,998.89
2018-11-13T06:34:04.014Z,998.92
2018-11-13T06:35:03.941Z,998.96
2018-11-13T06:36:03.888Z,998.95
2018-11-13T06:37:03.817Z,998.96
2018-11-13T06:38:03.748Z,998.95
2018-11-13T06:39:03.682Z,998.95
2018-11-13T06:40:03.612Z,999.01
2018-11-13T06:41:03.547Z,998.99
2018-11-13T06:42:03.467Z,999.02
2018-11-13T06:43:03.409Z,999.04
2018-11-13T06:44:03.327Z,999.01
2018-11-13T06:45:03.270Z,998.98
2018-11-13T06:46:03.211Z,999.03
2018-11-13T06:47:03.131Z,999.07
2018-11-13T06:48:03.056Z,999.09
2018-11-13T06:49:03.030Z,999.09
2018-11-13T06:50:02.946Z,999.07
2018-11-13T06:51:02.864Z,999.06
2018-11-13T06:52:02.794Z,999.10
2018-11-13T06:53:02.721Z,999.10
2018-11-13T06:54:02.673Z,999.14
2018-11-13T06:55:02.593Z,999.10
2018-11-13T06:56:02.521Z,999.10
2018-11-13T06:57:02.480Z,999.12
2018-11-13T06:58:02.388Z,999.13
2018-11-13T06:59:02.319Z,999.11
2018-11-13T07:00:02.257Z,999.10
2018-11-13T07:01:02.177Z,999.11
2018-11-13T07:02:02.107Z,999.15
2018-11-13T07:03:02.094Z,999.15
2018-11-13T07:04:01.985Z,999.14
2018-11-13T07:05:01.966Z,999.15
2018-11-13T07:06:01.849Z,999.15
2018-11-13T07:07:01.792Z,999.15
2018-11-13T07:08:01.720Z,999.18
2018-11-13T07:09:01.645Z,999.13
2018-11-13T07:10:01.581Z,999.19
2018-11-13T07:11:01.573Z,999.17
2018-11-13T07:12:01.440Z,999.18
2018-11-13T07:13:01.366Z,999.18
2018-11-13T07:14:01.294Z,999.17
2018-11-13T07:15:01.225Z,999.13
2018-11-13T07:16:01.162Z,999.17
2018-11-13T07:17:01.099Z,999.18
2018-11-13T07:18:01.032Z,999.21
2018-11-13T07:19:00.955Z,999.21
2018-11-13T07:20:00.902Z,999.21
2018-11-13T07:21:00.831Z,999.20
2018-11-13T07:22:00.767Z,999.27
2018-11-13T07:23:00.691Z,999.24
2018-11-13T07:24:00.624Z,999.23
2018-11-13T07:25:00.544Z,999.29
2018-11-13T07:26:00.483Z,999.27
2018-11-13T07:27:00.426Z,999.30
2018-11-13T07:28:00.413Z,999.32
2018-11-13T07:29:00.271Z,999.31
2018-11-13T07:30:00.237Z,999.36
2018-11-13T07:31:00.132Z,999.36
2018-11-13T07:32:00.091Z,999.36
2018-11-13T07:33:00.010Z,999.40
2018-11-13T07:33:59.945Z,999.38
2018-11-13T07:34:59.865Z,999.37
2018-11-13T07:35:59.816Z,999.38
2018-11-13T07:36:59.736Z,999.38
2018-11-13T07:37:59.677Z,999.39
2018-11-13T07:38:59.605Z,999.41
2018-11-13T07:39:59.541Z,999.45
2018-11-13T07:40:59.499Z,999.47
2018-11-13T07:41:59.391Z,999.46
2018-11-13T07:42:59.322Z,999.47
2018-11-13T07:43:59.270Z,999.44
2018-11-13T07:44:59.245Z,999.48
2018-11-13T07:45:59.132Z,999.50
2018-11-13T07:46:59.100Z,999.50
2018-11-13T07:47:59.080Z,999.50
2018-11-13T07:48:58.934Z,999.51
2018-11-13T07:49:58.865Z,999.52
2018-11-13T07:50:58.836Z,999.57
2018-11-13T07:51:58.722Z,999.58
2018-11-13T07:52:58.645Z,999.60
2018-11-13T07:53:58.656Z,999.58
2018-11-13T07:54:58.510Z,999.60
2018-11-13T07:55:58.445Z,999.62
2018-11-13T07:56:58.381Z,999.65
2018-11-13T07:57:58.321Z,999.59
2018-11-13T07:58:58.248Z,999.63
2018-11-13T07:59:58.184Z,999.65
2018-11-13T08:00:58.104Z,999.66
2018-11-13T08:01:58.069Z,999.67
2018-11-13T08:02:57.964Z,999.66
2018-11-13T08:03:57.901Z,999.71
2018-11-13T08:04:57.844Z,999.69
2018-11-13T08:05:57.784Z,999.72
2018-11-13T08:06:57.714Z,999.72
2018-11-13T08:07:57.646Z,999.73
2018-11-13T08:08:57.570Z,999.78
2018-11-13T08:09:57.504Z,999.81
2018-11-13T08:10:57.436Z,999.80
2018-11-13T08:11:57.368Z,999.81
2018-11-13T08:12:57.425Z,999.81
2018-11-13T08:13:57.242Z,999.86
2018-11-13T08:14:57.172Z,999.86
2018-11-13T08:15:57.090Z,999.89
2018-11-13T08:16:57.034Z,999.89
2018-11-13T08:17:56.987Z,999.92
2018-11-13T08:18:56.941Z,999.93
2018-11-13T08:19:56.834Z,999.94
2018-11-13T08:20:56.752Z,999.97
2018-11-13T08:21:56.738Z,999.95
2018-11-13T08:22:56.627Z,999.99
2018-11-13T08:23:56.557Z,999.98
2018-11-13T08:24:56.481Z,999.99
2018-11-13T08:25:56.415Z,1000.00
2018-11-13T08:26:56.354Z,1000.03
2018-11-13T08:27:56.336Z,1000.02
2018-11-13T08:28:56.346Z,1000.03
2018-11-13T08:29:56.153Z,1000.05
2018-11-13T08:30:56.097Z,1000.07
2018-11-13T08:31:56.003Z,1000.09
2018-11-13T08:32:55.960Z,1000.08
2018-11-13T08:33:55.894Z,1000.06
2018-11-13T08:34:55.960Z,1000.10
2018-11-13T08:35:55.744Z,1000.11
2018-11-13T08:36:55.686Z,1000.14
2018-11-13T08:37:55.626Z,1000.14
2018-11-13T08:38:55.547Z,1000.14
2018-11-13T08:39:55.482Z,1000.17
2018-11-13T08:40:55.404Z,1000.13
2018-11-13T08:41:55.334Z,1000.12
2018-11-13T08:42:55.273Z,1000.09
2018-11-13T08:43:55.208Z,1000.10
2018-11-13T08:44:55.143Z,1000.12
2018-11-13T08:45:55.074Z,1000.15
2018-11-13T08:46:55.010Z,1000.12
2018-11-13T08:47:54.938Z,1000.13
2018-11-13T08:48:54.862Z,1000.17
2018-11-13T08:49:54.799Z,1000.17
2018-11-13T08:50:54.749Z,1000.20
2018-11-13T08:51:54.679Z,1000.24
2018-11-13T08:52:54.607Z,1000.26
2018-11-13T08:53:54.536Z,1000.26
2018-11-13T08:54:54.457Z,1000.30
2018-11-13T08:55:54.395Z,1000.29
2018-11-13T08:56:54.339Z,1000.32
2018-11-13T08:57:54.274Z,1000.32
2018-11-13T08:58:54.326Z,1000.31
2018-11-13T08:59:54.141Z,1000.32
2018-11-13T09:00:54.061Z,1000.31
2018-11-13T09:01:53.995Z,1000.33
2018-11-13T09:02:54.046Z,1000.30
2018-11-13T09:03:53.876Z,1000.32
2018-11-13T09:04:53.878Z,1000.33
2018-11-13T09:05:53.745Z,1000.33
2018-11-13T09:06:53.673Z,1000.33
2018-11-13T09:07:53.605Z,1000.34
2018-11-13T09:08:53.546Z,1000.40
2018-11-13T09:09:53.467Z,1000.38
2018-11-13T09:10:53.398Z,1000.37
2018-11-13T09:11:53.445Z,1000.39
2018-11-13T09:12:53.260Z,1000.37
2018-11-13T09:13:53.195Z,1000.41
2018-11-13T09:14:53.121Z,1000.40
2018-11-13T09:15:53.059Z,1000.41
2018-11-13T09:16:53.000Z,1000.44
2018-11-13T09:17:52.969Z,1000.45
2018-11-13T09:18:52.990Z,1000.47
2018-11-13T09:19:52.800Z,1000.47
2018-11-13T09:20:52.723Z,1000.48
2018-11-13T09:21:52.676Z,1000.51
2018-11-13T09:22:52.654Z,1000.54
2018-11-13T09:23:52.528Z,1000.57
2018-11-13T09:24:52.462Z,1000.53
2018-11-13T09:25:52.404Z,1000.53
2018-11-13T09:26:52.319Z,1000.53
2018-11-13T09:27:52.257Z,1000.51
2018-11-13T09:28:52.196Z,1000.48
2018-11-13T09:29:52.222Z,1000.54
2018-11-13T09:30:52.337Z,1000.53
2018-11-13T09:31:52.202Z,1000.56
2018-11-13T09:32:51.956Z,1000.56
2018-11-13T09:33:51.853Z,1000.57
2018-11-13T09:34:51.796Z,1000.59
2018-11-13T09:35:51.775Z,1000.60
2018-11-13T09:36:51.653Z,1000.58
2018-11-13T09:37:51.591Z,1000.62
2018-11-13T09:38:51.532Z,1000.60
2018-11-13T09:39:51.456Z,1000.61
2018-11-13T09:40:51.392Z,1000.64
2018-11-13T09:41:51.326Z,1000.60
2018-11-13T09:42:51.251Z,1000.62
2018-11-13T09:43:51.189Z,1000.66
2018-11-13T09:44:51.217Z,1000.66
2018-11-13T09:45:51.128Z,1000.66
2018-11-13T09:46:50.997Z,1000.65
2018-11-13T09:47:51.033Z,1000.66
2018-11-13T09:48:50.857Z,1000.65
2018-11-13T09:49:50.785Z,1000.67
2018-11-13T09:50:50.807Z,1000.70
2018-11-13T09:51:50.651Z,1000.68
2018-11-13T09:52:50.595Z,1000.73
2018-11-13T09:53:50.628Z,1000.77
2018-11-13T09:54:50.462Z,1000.76
2018-11-13T09:55:50.401Z,1000.78
2018-11-13T09:56:50.314Z,1000.78
2018-11-13T09:57:50.249Z,1000.81
2018-11-13T09:58:50.193Z,1000.81
2018-11-13T09:59:50.179Z,1000.82
2018-11-13T10:00:50.176Z,1000.84
2018-11-13T10:01:50.302Z,1000.83
2018-11-13T10:02:50.467Z,1000.85
2018-11-13T10:03:50.508Z,1000.84
2018-11-13T10:04:50.503Z,1000.88
2018-11-13T10:05:49.803Z,1000.85
2018-11-13T10:06:49.655Z,1000.87
2018-11-13T10:07:49.605Z,1000.86
2018-11-13T10:08:49.524Z,1000.90
2018-11-13T10:09:49.464Z,1000.89
2018-11-13T10:10:49.518Z,1000.93
2018-11-13T10:11:49.323Z,1000.94
2018-11-13T10:12:49.251Z,1000.94
2018-11-13T10:13:49.181Z,1000.91
2018-11-13T10:14:49.130Z,1000.96
2018-11-13T10:15:49.056Z,1000.93
2018-11-13T10:16:48.979Z,1000.95
2018-11-13T10:17:48.986Z,1000.95
2018-11-13T10:18:48.850Z,1000.95
2018-11-13T10:19:48.777Z,1000.97
2018-11-13T10:20:48.725Z,1000.97
2018-11-13T10:21:48.669Z,1000.97
2018-11-13T10:22:48.592Z,1001.00
2018-11-13T10:23:48.526Z,1001.01
2018-11-13T10:24:48.462Z,1000.98
2018-11-13T10:25:48.384Z,1001.02
2018-11-13T10:26:48.312Z,1000.96
2018-11-13T10:27:48.355Z,1000.94
2018-11-13T10:28:48.190Z,1000.95
2018-11-13T10:29:48.144Z,1000.96
2018-11-13T10:30:48.062Z,1000.98
2018-11-13T10:31:47.982Z,1000.92
2018-11-13T10:32:47.930Z,1000.96
2018-11-13T10:33:47.860Z,1000.98
2018-11-13T10:34:47.787Z,1000.96
2018-11-13T10:35:47.749Z,1000.95
2018-11-13T10:36:47.648Z,1000.96
2018-11-13T10:37:47.582Z,1000.96
2018-11-13T10:38:47.518Z,1000.97
2018-11-13T10:39:47.467Z,1000.95
2018-11-13T10:40:47.591Z,1000.93
2018-11-13T10:41:47.313Z,1000.91
2018-11-13T10:42:47.262Z,1000.90
2018-11-13T10:43:47.175Z,1000.90
2018-11-13T10:44:47.126Z,1000.83
2018-11-13T10:45:47.068Z,1000.86
2018-11-13T10:46:46.985Z,1000.85
2018-11-13T10:47:46.926Z,1000.82
2018-11-13T10:48:46.860Z,1000.83
2018-11-13T10:49:46.784Z,1000.84
2018-11-13T10:50:46.722Z,1000.85
2018-11-13T10:51:46.650Z,1000.86
2018-11-13T10:52:46.598Z,1000.87
2018-11-13T10:53:46.524Z,1000.85
2018-11-13T10:54:46.463Z,1000.83
2018-11-13T10:55:46.381Z,1000.84
2018-11-13T10:56:46.324Z,1000.84
2018-11-13T10:57:46.256Z,1000.82
2018-11-13T10:58:46.187Z,1000.79
2018-11-13T10:59:46.123Z,1000.82
2018-11-13T11:00:46.069Z,1000.80
2018-11-13T11:01:46.023Z,1000.79
2018-11-13T11:02:45.930Z,1000.77
2018-11-13T11:03:45.857Z,1000.74
2018-11-13T11:04:45.787Z,1000.77
2018-11-13T11:05:45.736Z,1000.76
2018-11-13T11:06:45.656Z,1000.76
2018-11-13T11:07:45.602Z,1000.78
2018-11-13T11:08:45.528Z,1000.78
2018-11-13T11:09:45.460Z,1000.79
2018-11-13T11:10:45.389Z,1000.82
2018-11-13T11:11:45.334Z,1000.78
2018-11-13T11:12:45.304Z,1000.80
2018-11-13T11:13:45.272Z,1000.80
2018-11-13T11:14:45.130Z,1000.82
2018-11-13T11:15:45.051Z,1000.80
2018-11-13T11:16:44.998Z,1000.77
2018-11-13T11:17:44.926Z,1000.82
2018-11-13T11:18:44.957Z,1000.77
2018-11-13T11:19:44.782Z,1000.72
2018-11-13T11:20:44.736Z,1000.73
2018-11-13T11:21:44.664Z,1000.74
2018-11-13T11:22:44.617Z,1000.72
2018-11-13T11:23:44.650Z,1000.72
2018-11-13T11:24:44.453Z,1000.68
2018-11-13T11:25:44.389Z,1000.73
2018-11-13T11:26:44.322Z,1000.70
2018-11-13T11:27:44.266Z,1000.72
2018-11-13T11:28:44.199Z,1000.75
2018-11-13T11:29:44.136Z,1000.74
2018-11-13T11:30:44.072Z,1000.70
2018-11-13T11:31:43.998Z,1000.71
2018-11-13T11:32:43.925Z,1000.68
2018-11-13T11:33:43.864Z,1000.69
2018-11-13T11:34:43.806Z,1000.66
2018-11-13T11:35:43.734Z,1000.70
2018-11-13T11:36:43.660Z,1000.67
2018-11-13T11:37:43.599Z,1000.65
2018-11-13T11:38:43.597Z,1000.65
2018-11-13T11:39:43.464Z,1000.63
2018-11-13T11:40:43.413Z,1000.63
2018-11-13T11:41:43.340Z,1000.63
2018-11-13T11:42:43.263Z,1000.58
2018-11-13T11:43:43.216Z,1000.59
2018-11-13T11:44:43.141Z,1000.53
2018-11-13T11:45:43.076Z,1000.56
2018-11-13T11:46:43.008Z,1000.51
2018-11-13T11:47:42.950Z,1000.54
2018-11-13T11:48:42.868Z,1000.59
2018-11-13T11:49:42.802Z,1000.54
2018-11-13T11:50:42.747Z,1000.55
2018-11-13T11:51:42.681Z,1000.50
2018-11-13T11:52:42.601Z,1000.49
2018-11-13T11:53:42.580Z,1000.49
2018-11-13T11:54:42.472Z,1000.48
2018-11-13T11:55:42.407Z,1000.49
2018-11-13T11:56:42.348Z,1000.46
2018-11-13T11:57:42.288Z,1000.46
2018-11-13T11:58:42.213Z,1000.45
2018-11-13T11:59:42.205Z,1000.45
2018-11-13T12:00:42.207Z,1000.49
2018-11-13T12:01:42.008Z,1000.46
2018-11-13T12:02:41.967Z,1000.44
2018-11-13T12:03:41.901Z,1000.46
2018-11-13T12:04:41.836Z,1000.48
2018-11-13T12:05:41.754Z,1000.48
2018-11-13T12:06:41.678Z,1000.47
2018-11-13T12:07:41.609Z,1000.48
2018-11-13T12:08:41.554Z,1000.48
2018-11-13T12:09:41.484Z,1000.46
2018-11-13T12:10:41.457Z,1000.51
2018-11-13T12:11:41.357Z,1000.48
2018-11-13T12:12:41.279Z,1000.48
2018-11-13T12:13:41.216Z,1000.49
2018-11-13T12:14:41.154Z,1000.50
2018-11-13T12:15:41.092Z,1000.50
2018-11-13T12:16:41.017Z,1000.51
2018-11-13T12:17:40.949Z,1000.47
2018-11-13T12:18:40.902Z,1000.45
2018-11-13T12:19:40.824Z,1000.43
2018-11-13T12:20:40.767Z,1000.48